Time;durP1;ratioP1;P1;durP2;ratioP2;P2;SDS_P1;SDS_P2;PMS_P1;PMS_P2;Temp;Humidity;BMP_temperature;BMP_pressure;BME280_temperature;BME280_humidity;BME280_pressure;Samples;Min_cycle;Max_cycle;Signal;HPM_P1;HPM_P2
2023/09/06 00:01:34;;;;;;;2.20;1.20;;;;;;;21.34;78.39;101011.13;5091862;28;20208;-74
2023/09/06 00:04:01;;;;;;;1.87;1.40;;;;;;;21.26;78.63;101006.22;5091726;28;20232;-74
2023/09/06 00:06:28;;;;;;;1.67;1.43;;;;;;;21.26;78.74;100994.75;5091952;28;20200;-74
2023/09/06 00:08:55;;;;;;;3.20;1.20;;;;;;;21.22;79.03;100997.56;5091330;28;20685;-74
2023/09/06 00:11:22;;;;;;;1.40;1.30;;;;;;;21.21;79.01;100982.59;5091428;28;20203;-74
2023/09/06 00:13:48;;;;;;;1.50;1.10;;;;;;;21.25;78.67;100983.28;5091433;28;20238;-74
2023/09/06 00:16:16;;;;;;;1.60;1.40;;;;;;;21.21;78.70;100997.69;5091149;28;20210;-74
2023/09/06 00:18:43;;;;;;;1.57;1.47;;;;;;;21.15;78.87;100982.06;5091617;28;20294;-74
2023/09/06 00:21:09;;;;;;;1.50;1.40;;;;;;;21.08;78.92;100986.84;5091389;28;20670;-74
2023/09/06 00:23:36;;;;;;;1.53;1.43;;;;;;;20.95;79.23;100988.44;5091105;28;20234;-74
2023/09/06 00:26:04;;;;;;;2.43;1.17;;;;;;;20.89;79.69;100984.34;5091553;28;20208;-74
2023/09/06 00:28:30;;;;;;;2.00;1.50;;;;;;;20.91;79.52;100981.59;5091532;28;20204;-74
2023/09/06 00:30:57;;;;;;;3.23;1.63;;;;;;;20.83;79.88;100971.38;5091914;28;20217;-74
2023/09/06 00:33:26;;;;;;;2.17;1.30;;;;;;;20.81;79.92;100971.47;5091152;28;20603;-74
2023/09/06 00:35:53;;;;;;;1.67;1.30;;;;;;;20.79;79.89;100969.81;5091521;28;20301;-74
2023/09/06 00:38:20;;;;;;;1.53;1.43;;;;;;;20.73;80.53;100962.19;5093891;28;20396;-74
2023/09/06 00:40:51;;;;;;;2.40;1.70;;;;;;;20.77;80.35;100961.09;5095046;28;20213;-74
2023/09/06 00:43:19;;;;;;;2.20;1.30;;;;;;;20.80;79.92;100964.44;5094526;28;20220;-74
2023/09/06 00:45:50;;;;;;;1.37;1.27;;;;;;;20.81;79.51;100978.56;5094984;28;20674;-74
2023/09/06 00:48:19;;;;;;;2.27;1.27;;;;;;;20.75;80.18;100976.22;5092167;28;20196;-74
2023/09/06 00:50:51;;;;;;;1.73;1.40;;;;;;;20.66;80.49;100966.13;5093939;28;20192;-74
2023/09/06 00:53:18;;;;;;;1.70;1.60;;;;;;;20.55;81.07;100956.03;5092086;28;20219;-74
2023/09/06 00:55:45;;;;;;;1.90;1.80;;;;;;;20.49;81.32;100941.28;5095024;28;20224;-74
2023/09/06 00:58:15;;;;;;;2.43;1.83;;;;;;;20.46;81.55;100937.97;5094541;28;20291;-74
2023/09/06 01:00:43;;;;;;;2.30;1.43;;;;;;;20.41;81.85;100932.88;5093296;28;20196;-74
2023/09/06 01:03:10;;;;;;;1.50;1.40;;;;;;;20.35;81.86;100936.72;5093752;28;20215;-74
2023/09/06 01:05:42;;;;;;;1.90;1.33;;;;;;;20.29;82.34;100931.72;5094886;28;20192;-74
2023/09/06 01:08:12;;;;;;;1.50;1.33;;;;;;;20.33;81.75;100929.78;5094453;28;20188;-74
2023/09/06 01:10:39;;;;;;;1.63;1.30;;;;;;;20.33;81.78;100943.88;5092345;28;20206;-75
2023/09/06 01:13:06;;;;;;;2.50;1.93;;;;;;;20.36;81.36;100935.78;5093085;28;20228;-75
2023/09/06 01:15:33;;;;;;;1.23;1.20;;;;;;;20.39;81.17;100950.66;5092585;28;20224;-75
2023/09/06 01:18:05;;;;;;;1.77;1.50;;;;;;;20.39;81.01;100959.47;5093446;28;20208;-75
2023/09/06 01:20:36;;;;;;;3.73;1.50;;;;;;;20.36;81.30;100954.34;5092947;28;20204;-75
2023/09/06 01:23:10;;;;;;;2.43;1.60;;;;;;;20.31;81.63;100952.88;5092488;28;20228;-74
2023/09/06 01:25:38;;;;;;;1.40;1.30;;;;;;;20.27;82.29;100943.34;5093341;28;20593;-74
2023/09/06 01:28:05;;;;;;;1.47;1.27;;;;;;;20.26;82.50;100933.69;5094181;28;20212;-74
2023/09/06 01:30:32;;;;;;;3.27;1.70;;;;;;;20.28;82.19;100935.34;5094518;28;20204;-74
2023/09/06 01:32:58;;;;;;;2.13;1.50;;;;;;;20.32;82.09;100930.75;5093493;28;20315;-74
2023/09/06 01:35:25;;;;;;;3.07;1.57;;;;;;;20.32;82.35;100936.88;5094597;28;20232;-74
2023/09/06 01:37:51;;;;;;;1.93;1.50;;;;;;;20.30;81.92;100940.56;5094674;28;20199;-74
2023/09/06 01:40:18;;;;;;;2.03;1.60;;;;;;;20.25;82.07;100938.13;5094691;28;20204;-74
2023/09/06 01:42:46;;;;;;;3.20;1.30;;;;;;;20.29;82.09;100937.03;5094295;28;20259;-74
2023/09/06 01:45:17;;;;;;;2.60;1.50;;;;;;;20.24;82.08;100949.69;5094651;28;20208;-74
2023/09/06 01:47:44;;;;;;;1.67;1.30;;;;;;;20.21;82.25;100944.53;5093701;28;20248;-74
2023/09/06 01:50:11;;;;;;;1.33;1.23;;;;;;;20.18;82.73;100940.25;5093526;28;20219;-74
2023/09/06 01:52:40;;;;;;;2.80;1.50;;;;;;;20.18;82.82;100934.94;5093639;28;20257;-75
2023/09/06 01:55:08;;;;;;;1.90;1.43;;;;;;;20.15;83.22;100928.94;5094240;28;20255;-74
2023/09/06 01:57:34;;;;;;;2.67;1.47;;;;;;;20.16;83.47;100923.56;5093901;28;20204;-73
2023/09/06 02:00:05;;;;;;;2.17;1.23;;;;;;;20.18;83.12;100924.34;5093263;28;20215;-73
2023/09/06 02:02:38;;;;;;;1.60;1.50;;;;;;;20.14;83.42;100921.94;5093591;28;20793;-73
2023/09/06 02:05:04;;;;;;;2.07;1.50;;;;;;;20.16;83.29;100928.88;5094006;28;20204;-73
2023/09/06 02:07:31;;;;;;;1.67;1.57;;;;;;;20.10;83.85;100913.28;5093397;28;20204;-73
2023/09/06 02:09:57;;;;;;;1.70;1.60;;;;;;;20.10;84.18;100912.41;5093615;28;20211;-73
2023/09/06 02:12:24;;;;;;;1.87;1.77;;;;;;;20.08;83.98;100917.81;5093380;28;20224;-73
2023/09/06 02:14:52;;;;;;;1.70;1.40;;;;;;;20.04;84.21;100910.94;5093285;28;20224;-73
2023/09/06 02:17:20;;;;;;;1.40;1.30;;;;;;;20.06;83.84;100911.72;5093834;28;20312;-73
2023/09/06 02:19:47;;;;;;;1.30;1.30;;;;;;;20.02;83.76;100913.66;5093481;28;20216;-73
2023/09/06 02:22:13;;;;;;;1.70;1.60;;;;;;;20.02;83.93;100912.81;5093631;28;20243;-73
2023/09/06 02:24:40;;;;;;;1.33;1.23;;;;;;;20.01;83.99;100914.59;5093364;28;20204;-73
2023/09/06 02:27:09;;;;;;;3.63;1.40;;;;;;;20.05;83.88;100917.94;5092852;28;20212;-73
2023/09/06 02:29:36;;;;;;;1.77;1.67;;;;;;;20.00;84.10;100920.84;5092723;28;20261;-73
2023/09/06 02:32:02;;;;;;;3.07;1.40;;;;;;;20.06;83.86;100917.03;5093114;28;20204;-73
2023/09/06 02:34:30;;;;;;;3.70;1.60;;;;;;;20.05;83.78;100928.53;5093540;28;20204;-73
2023/09/06 02:36:57;;;;;;;2.40;1.47;;;;;;;20.06;83.83;100932.94;5093395;28;20207;-73
2023/09/06 02:39:25;;;;;;;1.33;1.30;;;;;;;20.01;83.42;100938.44;5092505;28;20585;-73
2023/09/06 02:41:51;;;;;;;6.60;1.67;;;;;;;20.00;83.97;100942.03;5092428;28;20236;-73
2023/09/06 02:44:18;;;;;;;3.33;1.50;;;;;;;20.00;84.83;100922.63;5093449;28;20207;-73
2023/09/06 02:46:44;;;;;;;1.90;1.70;;;;;;;20.02;85.01;100916.31;5093048;28;20215;-73
2023/09/06 02:49:12;;;;;;;3.17;1.50;;;;;;;19.99;84.88;100918.25;5092695;28;20567;-73
2023/09/06 02:51:42;;;;;;;3.80;1.60;;;;;;;19.98;84.34;100933.31;5092536;28;20795;-73
2023/09/06 02:54:09;;;;;;;1.73;1.63;;;;;;;20.00;83.81;100933.25;5092884;28;20231;-74
2023/09/06 02:56:37;;;;;;;1.77;1.67;;;;;;;20.01;83.31;100954.34;5093225;28;20239;-73
2023/09/06 02:59:07;;;;;;;2.70;1.60;;;;;;;20.04;82.91;100970.09;5092930;28;20299;-73
2023/09/06 03:01:35;;;;;;;2.20;1.60;;;;;;;19.99;82.90;100984.50;5092306;28;20211;-73
2023/09/06 03:04:06;;;;;;;1.47;1.40;;;;;;;19.92;82.73;100989.25;5092703;28;20315;-73
2023/09/06 03:06:33;;;;;;;2.03;1.47;;;;;;;19.90;82.68;100993.78;5092173;28;20272;-73
2023/09/06 03:09:06;;;;;;;3.10;2.10;;;;;;;19.89;83.04;100999.16;5091847;28;20207;-73
2023/09/06 03:11:32;;;;;;;4.90;1.53;;;;;;;19.89;83.20;100992.06;5092772;28;20297;-73
2023/09/06 03:13:59;;;;;;;1.80;1.70;;;;;;;19.85;83.64;100987.84;5092100;28;20244;-73
2023/09/06 03:16:27;;;;;;;2.50;1.70;;;;;;;19.83;83.62;100984.41;5092201;28;20597;-73
2023/09/06 03:18:54;;;;;;;2.17;1.63;;;;;;;19.83;83.50;100985.25;5091423;28;20207;-73
2023/09/06 03:21:21;;;;;;;2.93;2.20;;;;;;;19.85;83.44;100985.19;5092493;28;20766;-73
2023/09/06 03:23:49;;;;;;;2.40;2.00;;;;;;;19.84;83.93;100984.34;5092534;28;20220;-73
2023/09/06 03:26:17;;;;;;;2.00;1.90;;;;;;;19.90;83.77;100979.66;5092816;28;20239;-73
2023/09/06 03:28:43;;;;;;;3.60;1.63;;;;;;;19.87;83.88;100972.72;5092472;28;20211;-73
2023/09/06 03:31:11;;;;;;;2.90;1.80;;;;;;;19.84;83.62;100984.34;5092239;28;20207;-73
2023/09/06 03:33:39;;;;;;;2.00;1.80;;;;;;;19.79;83.84;100982.84;5091350;28;20224;-73
2023/09/06 03:36:07;;;;;;;2.10;1.90;;;;;;;19.72;83.82;100982.28;5091949;28;20228;-73
2023/09/06 03:38:36;;;;;;;2.10;1.90;;;;;;;19.75;83.27;100995.38;5092096;28;20204;-73
2023/09/06 03:41:03;;;;;;;1.80;1.70;;;;;;;19.69;83.68;101002.72;5091225;28;20299;-76
2023/09/06 03:43:32;;;;;;;2.30;1.90;;;;;;;19.64;83.78;100995.88;5091394;28;20228;-75
2023/09/06 03:45:59;;;;;;;1.80;1.70;;;;;;;19.57;84.41;100983.00;5092157;28;20253;-76
2023/09/06 03:48:27;;;;;;;1.53;1.43;;;;;;;19.58;84.34;100982.03;5091671;28;20568;-75
2023/09/06 03:50:55;;;;;;;1.70;1.60;;;;;;;19.50;83.32;101000.94;5091632;28;20257;-75
2023/09/06 03:53:23;;;;;;;2.80;1.80;;;;;;;19.42;83.86;101000.44;5091241;28;20281;-75
2023/09/06 03:55:50;;;;;;;1.57;1.33;;;;;;;19.38;83.67;100994.44;5092199;28;20319;-75
2023/09/06 03:58:16;;;;;;;2.07;1.60;;;;;;;19.46;83.29;101004.66;5091710;28;20200;-75
2023/09/06 04:00:45;;;;;;;2.13;1.60;;;;;;;19.44;83.03;101004.75;5091262;28;20200;-74
2023/09/06 04:03:11;;;;;;;1.80;1.70;;;;;;;19.37;82.84;101013.91;5091406;28;20764;-74
2023/09/06 04:05:40;;;;;;;2.60;1.70;;;;;;;19.35;82.84;101021.06;5091698;28;20691;-74
2023/09/06 04:08:07;;;;;;;2.40;2.20;;;;;;;19.28;83.73;101010.81;5091202;28;20208;-74
2023/09/06 04:10:36;;;;;;;1.80;1.60;;;;;;;19.27;83.18;101014.41;5091672;28;20212;-74
2023/09/06 04:13:04;;;;;;;1.70;1.60;;;;;;;19.22;82.79;101018.09;5093619;28;20227;-74
2023/09/06 04:15:34;;;;;;;1.53;1.43;;;;;;;19.14;83.50;101014.94;5095106;28;20227;-74
2023/09/06 04:18:04;;;;;;;1.50;1.40;;;;;;;19.17;83.34;101008.69;5095713;28;20733;-74
2023/09/06 04:20:32;;;;;;;2.10;1.67;;;;;;;19.11;82.98;101028.34;5095401;28;20295;-74
2023/09/06 04:22:59;;;;;;;5.13;1.80;;;;;;;19.04;82.94;101024.25;5095371;28;20326;-74
2023/09/06 04:25:27;;;;;;;1.50;1.40;;;;;;;19.00;83.10;101022.66;5095911;28;20290;-74
2023/09/06 04:27:55;;;;;;;1.70;1.60;;;;;;;18.96;83.30;101011.34;5095229;28;20696;-74
2023/09/06 04:30:24;;;;;;;1.50;1.40;;;;;;;18.96;83.49;101011.34;5095551;28;20204;-74
2023/09/06 04:32:51;;;;;;;2.60;1.90;;;;;;;18.94;83.53;101010.56;5094939;28;20220;-74
2023/09/06 04:35:19;;;;;;;1.70;1.60;;;;;;;18.87;84.04;100998.56;5095617;28;20207;-74
2023/09/06 04:37:46;;;;;;;2.13;1.93;;;;;;;18.83;84.72;100989.03;5095527;28;20828;-74
2023/09/06 04:40:13;;;;;;;1.90;1.80;;;;;;;18.78;84.81;100986.56;5095376;28;20211;-75
2023/09/06 04:42:41;;;;;;;2.70;1.90;;;;;;;18.81;84.54;100993.50;5094732;28;20224;-74
2023/09/06 04:45:09;;;;;;;2.27;1.80;;;;;;;18.78;84.44;100996.28;5095474;28;20219;-74
2023/09/06 04:47:36;;;;;;;4.03;2.43;;;;;;;18.76;84.60;100991.03;5095282;28;20691;-74
2023/09/06 04:50:03;;;;;;;3.00;2.10;;;;;;;18.74;84.64;100992.06;5095488;28;20204;-74
2023/09/06 04:52:36;;;;;;;2.43;2.23;;;;;;;18.72;84.44;100994.75;5094977;28;20262;-74
2023/09/06 04:55:06;;;;;;;2.43;2.23;;;;;;;18.69;84.82;100991.38;5094568;28;20684;-74
2023/09/06 04:57:33;;;;;;;1.93;1.70;;;;;;;18.65;84.79;100988.88;5095362;28;20224;-74
2023/09/06 05:00:00;;;;;;;2.10;1.90;;;;;;;18.69;84.64;100994.91;5094927;28;20231;-74
2023/09/06 05:02:27;;;;;;;6.50;2.20;;;;;;;18.65;84.66;100996.81;5095029;28;20262;-74
2023/09/06 05:04:53;;;;;;;2.07;1.70;;;;;;;18.65;84.56;101002.13;5093975;28;20204;-74
2023/09/06 05:07:20;;;;;;;2.10;2.00;;;;;;;18.60;85.19;100993.50;5094876;28;20204;-74
2023/09/06 05:09:49;;;;;;;2.37;2.17;;;;;;;18.57;85.29;100992.78;5095155;28;20227;-74
2023/09/06 05:12:16;;;;;;;2.30;2.03;;;;;;;18.62;85.61;100989.00;5094458;28;20230;-74
2023/09/06 05:14:42;;;;;;;2.23;2.03;;;;;;;18.60;86.73;100967.06;5094989;28;20310;-74
2023/09/06 05:17:08;;;;;;;2.13;2.00;;;;;;;18.68;86.71;100963.25;5094470;28;20227;-74
2023/09/06 05:19:35;;;;;;;2.17;1.70;;;;;;;18.70;87.04;100951.66;5094573;28;20201;-74
2023/09/06 05:22:01;;;;;;;3.87;2.23;;;;;;;18.72;86.52;100962.16;5094030;28;20211;-75
2023/09/06 05:24:28;;;;;;;2.40;2.20;;;;;;;18.75;86.22;100972.59;5093776;28;20201;-74
2023/09/06 05:26:56;;;;;;;2.30;2.00;;;;;;;18.78;86.02;100978.63;5094403;28;20573;-74
2023/09/06 05:29:22;;;;;;;2.47;2.27;;;;;;;18.81;86.03;100981.16;5093565;28;20218;-74
2023/09/06 05:31:50;;;;;;;2.20;1.80;;;;;;;18.84;86.31;100980.16;5094402;28;20204;-74
2023/09/06 05:34:16;;;;;;;2.50;2.30;;;;;;;18.84;87.02;100970.44;5094102;28;20298;-74
2023/09/06 05:36:43;;;;;;;2.20;2.00;;;;;;;18.90;87.36;100961.38;5094202;28;20223;-74
2023/09/06 05:39:09;;;;;;;2.70;1.80;;;;;;;18.95;87.26;100959.38;5094582;28;20214;-74
2023/09/06 05:41:36;;;;;;;2.00;1.90;;;;;;;18.99;87.42;100960.09;5094001;28;20688;-74
2023/09/06 05:44:04;;;;;;;2.57;1.93;;;;;;;18.99;87.69;100953.03;5094063;28;20232;-74
2023/09/06 05:46:31;;;;;;;3.33;1.90;;;;;;;19.02;87.46;100957.31;5094092;28;20573;-74
2023/09/06 05:48:57;;;;;;;2.93;1.70;;;;;;;19.03;87.07;100970.47;5093541;28;20211;-74
2023/09/06 05:51:24;;;;;;;2.70;2.13;;;;;;;19.07;87.29;100970.31;5093408;28;20211;-73
2023/09/06 05:53:50;;;;;;;3.30;2.30;;;;;;;19.00;88.58;100964.47;5093752;28;20238;-73
2023/09/06 05:56:17;;;;;;;3.07;2.70;;;;;;;18.68;88.93;100961.44;5094002;28;20231;-73
2023/09/06 05:58:43;;;;;;;2.67;2.30;;;;;;;18.84;88.41;100956.34;5093531;28;20211;-73
2023/09/06 06:01:12;;;;;;;1.67;1.57;;;;;;;18.95;88.30;100962.03;5094017;28;20211;-73
2023/09/06 06:03:38;;;;;;;1.83;1.73;;;;;;;19.02;88.05;100959.94;5093844;28;20235;-74
2023/09/06 06:06:10;;;;;;;2.40;1.63;;;;;;;19.14;87.75;100979.69;5085562;28;20204;-73
2023/09/06 06:08:37;;;;;;;2.53;2.00;;;;;;;19.16;87.46;100983.13;5093895;28;20235;-74
2023/09/06 06:11:03;;;;;;;2.57;2.37;;;;;;;19.19;87.71;100986.50;5092948;28;20212;-75
2023/09/06 06:13:30;;;;;;;3.00;1.93;;;;;;;19.10;88.51;100980.78;5092790;28;20258;-74
2023/09/06 06:15:56;;;;;;;2.90;2.60;;;;;;;19.10;89.01;100964.91;5092689;28;20225;-74
2023/09/06 06:18:26;;;;;;;3.00;2.10;;;;;;;19.01;90.08;100958.25;5092445;28;20207;-75
2023/09/06 06:20:52;;;;;;;1.97;1.87;;;;;;;19.04;90.43;100947.50;5092564;28;20196;-74
2023/09/06 06:23:19;;;;;;;3.90;2.57;;;;;;;19.11;90.52;100941.00;5091642;28;20708;-73
2023/09/06 06:25:45;;;;;;;3.53;3.23;;;;;;;18.93;90.54;100948.00;5093040;28;20669;-73
2023/09/06 06:28:15;;;;;;;3.90;3.13;;;;;;;18.68;91.72;100931.50;5092600;28;20227;-73
2023/09/06 06:30:42;;;;;;;3.40;3.20;;;;;;;18.63;92.20;100916.69;5092471;28;20204;-73
2023/09/06 06:33:09;;;;;;;3.50;3.20;;;;;;;18.61;92.79;100907.97;5088108;28;20227;-74
2023/09/06 06:35:38;;;;;;;3.40;3.20;;;;;;;18.72;92.89;100901.34;5090913;28;20203;-74
2023/09/06 06:38:05;;;;;;;3.30;3.00;;;;;;;18.74;92.54;100904.78;5092558;28;20577;-74
2023/09/06 06:40:34;;;;;;;5.93;3.27;;;;;;;18.92;93.68;100903.09;5083124;28;20846;-74
2023/09/06 06:43:01;;;;;;;5.20;3.20;;;;;;;19.11;nan;100887.22;5092234;28;20227;-74
2023/09/06 06:45:28;;;;;;;3.43;2.87;;;;;;;19.21;93.66;100888.50;5092550;28;20208;-74
2023/09/06 06:47:54;;;;;;;3.20;3.00;;;;;;;19.11;92.22;100925.13;5091733;28;20669;-76
2023/09/06 06:50:21;;;;;;;2.70;2.50;;;;;;;19.05;92.92;100928.06;5092734;28;20208;-74
2023/09/06 06:52:49;;;;;;;9.77;3.00;;;;;;;19.07;93.61;100914.75;5092419;28;20236;-74
2023/09/06 06:55:15;;;;;;;7.57;3.00;;;;;;;19.17;93.87;100913.41;5092687;28;20212;-74
2023/09/06 06:57:42;;;;;;;3.83;3.07;;;;;;;19.13;94.30;100911.84;5092377;28;20228;-74
2023/09/06 07:00:11;;;;;;;3.53;3.23;;;;;;;19.11;95.56;100890.72;5092157;28;20249;-74
2023/09/06 07:02:38;;;;;;;3.10;2.87;;;;;;;19.18;96.45;100878.91;5091581;28;20230;-74
2023/09/06 07:05:05;;;;;;;3.40;3.10;;;;;;;19.13;97.74;100853.63;5092436;28;20206;-74
2023/09/06 07:07:31;;;;;;;3.83;3.10;;;;;;;19.05;100.00;100816.94;5091746;28;20199;-74
2023/09/06 07:09:59;;;;;;;4.37;3.00;;;;;;;19.16;100.00;100797.88;5092010;28;20199;-74
2023/09/06 07:12:26;;;;;;;3.67;3.30;;;;;;;19.22;100.00;100789.63;5083470;28;20781;-75
2023/09/06 07:14:53;;;;;;;3.23;3.03;;;;;;;19.32;100.00;100793.53;5091918;28;20284;-75
2023/09/06 07:17:19;;;;;;;3.83;3.47;;;;;;;19.42;100.00;100789.53;5089098;28;20224;-75
2023/09/06 07:19:46;;;;;;;3.77;3.47;;;;;;;19.47;100.00;100801.66;5091936;28;20207;-74
2023/09/06 07:22:13;;;;;;;3.80;3.37;;;;;;;19.51;100.00;100808.53;5091787;28;20220;-74
2023/09/06 07:24:39;;;;;;;3.40;3.20;;;;;;;19.57;100.00;100817.00;5091571;28;20222;-75
2023/09/06 07:27:07;;;;;;;4.20;3.80;;;;;;;19.72;100.00;100827.78;5091242;28;20208;-74
2023/09/06 07:29:33;;;;;;;3.67;3.33;;;;;;;19.81;100.00;100845.88;5091709;28;20208;-74
2023/09/06 07:32:00;;;;;;;3.67;3.37;;;;;;;19.93;100.00;100861.13;5091782;28;20483;-74
2023/09/06 07:34:26;;;;;;;4.33;3.00;;;;;;;20.02;99.80;100884.50;5091267;28;20337;-74
2023/09/06 07:36:53;;;;;;;5.90;3.07;;;;;;;20.10;99.89;100892.06;5091780;28;20224;-75
2023/09/06 07:39:21;;;;;;;3.23;3.03;;;;;;;20.12;99.72;100891.97;5091616;28;20220;-75
2023/09/06 07:41:48;;;;;;;5.47;3.13;;;;;;;20.21;99.72;100896.81;5092156;28;20219;-75
2023/09/06 07:44:16;;;;;;;3.37;3.07;;;;;;;20.34;99.66;100900.53;5091373;28;20740;-74
2023/09/06 07:46:48;;;;;;;3.30;3.00;;;;;;;20.42;98.79;100918.72;5091656;28;20207;-74
2023/09/06 07:49:15;;;;;;;3.13;2.83;;;;;;;20.61;98.47;100929.22;5090895;28;20204;-73
2023/09/06 07:51:41;;;;;;;3.33;3.03;;;;;;;20.75;96.65;100952.34;5091798;28;20200;-74
2023/09/06 07:54:08;;;;;;;3.10;2.70;;;;;;;20.95;95.23;100989.31;5091183;28;20242;-74
2023/09/06 07:56:34;;;;;;;3.00;2.70;;;;;;;21.06;94.24;101001.16;5091347;28;20223;-75
2023/09/06 07:59:01;;;;;;;2.90;2.70;;;;;;;21.16;92.95;101036.88;5091531;28;20204;-74
2023/09/06 08:01:29;;;;;;;3.17;2.90;;;;;;;21.25;91.80;101059.41;5089469;28;20207;-74
2023/09/06 08:03:58;;;;;;;5.83;2.77;;;;;;;21.32;93.14;101053.69;5085180;28;20234;-74
2023/09/06 08:06:24;;;;;;;3.33;2.27;;;;;;;21.37;93.17;101049.00;5091114;28;20231;-74
2023/09/06 08:08:51;;;;;;;6.43;2.80;;;;;;;21.44;92.80;101056.66;5091014;28;20204;-74
2023/09/06 08:11:18;;;;;;;4.10;2.60;;;;;;;21.51;93.03;101050.94;5091474;28;20293;-74
2023/09/06 08:13:45;;;;;;;2.63;2.43;;;;;;;21.44;96.53;101000.88;5091407;28;20227;-74
2023/09/06 08:16:11;;;;;;;2.90;2.70;;;;;;;21.46;97.81;100977.75;5091491;28;20206;-75
2023/09/06 08:18:39;;;;;;;3.10;2.77;;;;;;;21.46;99.79;100945.88;5082359;28;20641;-74
2023/09/06 08:21:07;;;;;;;3.47;2.23;;;;;;;21.50;99.67;100950.06;5091600;28;20201;-74
2023/09/06 08:23:34;;;;;;;4.23;3.43;;;;;;;21.56;98.18;100949.72;5091206;28;20231;-74
2023/09/06 08:26:00;;;;;;;4.03;2.93;;;;;;;;;;5091538;28;20200;-74
2023/09/06 08:28:27;;;;;;;3.33;2.90;;;;;;;21.86;89.75;101101.25;5091649;28;20199;-74
2023/09/06 08:30:53;;;;;;;3.50;2.97;;;;;;;22.05;91.94;101074.50;5091339;28;20222;-74
2023/09/06 08:33:20;;;;;;;4.77;3.00;;;;;;;22.18;88.09;101138.50;5090260;28;20220;-74
2023/09/06 08:35:47;;;;;;;4.50;3.23;;;;;;;22.34;91.44;101093.31;5090722;28;20562;-74
2023/09/06 08:38:14;;;;;;;2.40;2.27;;;;;;;22.40;90.33;101130.19;5091007;28;20216;-74
2023/09/06 08:40:41;;;;;;;3.20;2.43;;;;;;;22.39;92.90;101073.44;5091560;28;20213;-74
2023/09/06 08:43:09;;;;;;;2.97;2.70;;;;;;;22.47;93.71;101051.72;5083866;28;20228;-74
2023/09/06 08:45:37;;;;;;;3.87;2.60;;;;;;;22.49;93.69;101047.16;5090658;28;20208;-74
2023/09/06 08:48:04;;;;;;;2.70;2.50;;;;;;;22.53;90.00;101075.28;5090962;28;20226;-74
2023/09/06 08:50:33;;;;;;;3.20;2.30;;;;;;;22.71;85.62;101177.16;5089444;28;20208;-75
2023/09/06 08:53:03;;;;;;;2.80;2.53;;;;;;;22.80;90.01;101130.50;5085254;28;20265;-74
2023/09/06 08:55:31;;;;;;;2.83;2.50;;;;;;;22.84;90.79;101092.13;5091133;28;20215;-75
2023/09/06 08:57:58;;;;;;;4.37;2.73;;;;;;;22.89;87.17;101135.28;5091068;28;20224;-74
2023/09/06 09:00:25;;;;;;;3.20;2.70;;;;;;;23.04;81.84;101231.22;5094571;28;20204;-75
2023/09/06 09:02:52;;;;;;;3.67;2.37;;;;;;;23.19;81.77;101273.81;5094177;28;20583;-74
2023/09/06 09:05:20;;;;;;;2.60;2.40;;;;;;;23.30;84.93;101217.22;5094591;28;20204;-75
2023/09/06 09:07:49;;;;;;;2.67;2.47;;;;;;;23.36;86.75;101194.66;5093253;28;20200;-75
2023/09/06 09:10:17;;;;;;;3.23;2.30;;;;;;;23.42;76.27;101377.31;5095232;28;20658;-75
2023/09/06 09:12:44;;;;;;;2.40;2.20;;;;;;;23.51;83.02;101312.81;5093768;28;20627;-74
2023/09/06 09:15:10;;;;;;;2.53;2.37;;;;;;;23.48;85.27;101207.25;5094289;28;20212;-75
2023/09/06 09:17:38;;;;;;;3.30;2.30;;;;;;;23.53;81.02;101306.44;5093182;28;20234;-75
2023/09/06 09:20:06;;;;;;;4.20;2.40;;;;;;;23.57;75.54;101363.09;5094483;28;20292;-75
2023/09/06 09:22:35;;;;;;;3.00;2.43;;;;;;;23.69;75.49;101431.69;5093570;28;20234;-75
2023/09/06 09:25:04;;;;;;;4.50;2.90;;;;;;;23.79;73.90;101446.22;5093704;28;20200;-75
2023/09/06 09:27:33;;;;;;;4.07;2.30;;;;;;;23.89;75.53;101432.34;5093920;28;20204;-74
2023/09/06 09:30:02;;;;;;;2.63;2.17;;;;;;;23.93;77.08;101431.22;5093686;28;20740;-75
2023/09/06 09:32:29;;;;;;;2.83;2.03;;;;;;;23.95;70.67;101462.19;5092983;28;20234;-74
2023/09/06 09:34:55;;;;;;;2.60;2.37;;;;;;;23.96;77.57;101410.56;5093684;28;20196;-75
2023/09/06 09:37:22;;;;;;;2.57;1.93;;;;;;;24.10;71.10;101499.56;5093676;28;20224;-75
2023/09/06 09:39:49;;;;;;;3.67;2.80;;;;;;;24.00;65.85;101477.91;5093347;28;20399;-75
2023/09/06 09:42:16;;;;;;;2.53;2.00;;;;;;;24.13;78.93;101385.53;5093551;28;20224;-75
2023/09/06 09:45:00;;;;;;;2.53;2.33;;;;;;;24.08;79.87;101320.94;5093506;28;20201;-75
2023/09/06 09:47:29;;;;;;;2.40;2.20;;;;;;;24.04;69.48;101434.09;5092989;28;20211;-75
2023/09/06 09:49:56;;;;;;;2.60;2.40;;;;;;;24.11;76.33;101443.44;5093789;28;20220;-75
2023/09/06 09:52:27;;;;;;;2.43;2.23;;;;;;;24.08;73.07;101426.75;5093734;28;20231;-75
2023/09/06 09:54:54;;;;;;;4.37;3.33;;;;;;;24.09;69.12;101488.03;5085304;28;20232;-75
2023/09/06 09:57:23;;;;;;;2.93;2.73;;;;;;;24.29;74.62;101460.16;5093353;28;20228;-75
2023/09/06 10:00:14;;;;;;;3.17;2.07;;;;;;;24.37;67.62;101545.09;5093820;28;20210;-75
2023/09/06 10:02:42;;;;;;;3.20;2.83;;;;;;;24.52;65.68;101648.34;5088908;28;20227;-75
2023/09/06 10:05:12;;;;;;;4.67;2.80;;;;;;;24.62;65.06;101691.38;5093493;28;20209;-75
2023/09/06 10:07:41;;;;;;;3.17;2.50;;;;;;;24.75;62.19;101750.25;5093475;28;20295;-74
2023/09/06 10:10:10;;;;;;;3.93;2.77;;;;;;;24.83;70.17;101582.41;5093561;28;20203;-74
2023/09/06 10:12:39;;;;;;;2.60;2.40;;;;;;;24.84;70.29;101564.59;5092923;28;20233;-75
2023/09/06 10:15:06;;;;;;;4.00;2.40;;;;;;;24.85;62.00;101691.84;5093616;28;20204;-75
2023/09/06 10:17:35;;;;;;;3.20;2.37;;;;;;;24.92;63.07;101685.19;5092587;28;20231;-75
2023/09/06 10:20:02;;;;;;;2.20;2.00;;;;;;;25.05;63.33;101722.72;5093728;28;20411;-75
2023/09/06 10:22:29;;;;;;;2.07;1.83;;;;;;;25.05;61.90;101766.31;5093455;28;20222;-75
2023/09/06 10:24:55;;;;;;;2.17;2.00;;;;;;;25.08;59.87;101802.69;5093309;28;20802;-75
2023/09/06 10:27:32;;;;;;;3.00;2.20;;;;;;;25.23;59.41;101817.00;5092691;28;20208;-75
2023/09/06 10:29:59;;;;;;;1.93;1.83;;;;;;;25.22;66.56;101721.75;5093428;28;20640;-75
2023/09/06 10:32:41;;;;;;;2.67;2.37;;;;;;;25.27;63.65;101658.16;5084153;28;20237;-75
2023/09/06 10:35:31;;;;;;;2.03;1.87;;;;;;;25.33;62.07;101714.78;5092871;28;20198;-75
2023/09/06 10:38:06;;;;;;;2.33;2.13;;;;;;;25.31;62.69;101692.66;5086349;28;20255;-75
2023/09/06 10:41:05;;;;;;;2.17;2.00;;;;;;;25.48;64.92;101683.56;5092760;28;20254;-75
2023/09/06 10:43:52;;;;;;;1.97;1.73;;;;;;;25.57;61.75;101714.25;5084257;28;20227;-75
2023/09/06 10:46:27;;;;;;;2.07;1.97;;;;;;;25.64;55.51;101833.25;5092453;28;20285;-75
2023/09/06 10:49:19;;;;;;;2.40;1.80;;;;;;;25.75;56.97;101908.34;5092153;28;20540;-75
2023/09/06 10:51:56;;;;;;;1.63;1.53;;;;;;;25.93;58.89;101844.03;5092358;28;20568;-75
2023/09/06 10:54:24;;;;;;;2.10;1.70;;;;;;;26.03;55.98;101892.50;5092375;28;20673;-75
2023/09/06 10:56:59;;;;;;;1.83;1.73;;;;;;;26.12;56.00;101900.81;5089681;28;20211;-75
2023/09/06 10:59:28;;;;;;;1.80;1.70;;;;;;;26.16;57.07;101893.44;5089183;28;20774;-75
2023/09/06 11:02:16;;;;;;;1.77;1.67;;;;;;;26.27;56.90;101890.13;5092458;28;20252;-75
2023/09/06 11:04:44;;;;;;;1.80;1.70;;;;;;;26.37;56.21;101891.25;5077960;28;20579;-75
2023/09/06 11:07:10;;;;;;;5.27;2.53;;;;;;;26.52;52.81;101934.94;5091317;28;20210;-75
2023/09/06 11:09:43;;;;;;;2.50;1.80;;;;;;;26.67;53.24;101951.91;5091734;28;20269;-75
2023/09/06 11:12:11;;;;;;;2.43;2.10;;;;;;;26.85;56.63;101921.28;5090045;28;20652;-74
2023/09/06 11:14:37;;;;;;;1.80;1.70;;;;;;;26.97;53.91;101927.66;5091920;28;20221;-75
2023/09/06 11:17:04;;;;;;;2.03;1.87;;;;;;;27.20;54.35;101936.06;5091093;28;20211;-74
2023/09/06 11:19:31;;;;;;;4.30;1.80;;;;;;;27.36;53.52;101976.16;5091966;28;20220;-76
2023/09/06 11:22:07;;;;;;;1.97;1.77;;;;;;;27.53;54.45;101947.25;5090671;28;20204;-75
2023/09/06 11:24:34;;;;;;;1.70;1.60;;;;;;;27.74;51.20;101961.03;5091411;28;20207;-75
2023/09/06 11:27:03;;;;;;;2.33;1.83;;;;;;;27.83;55.60;101930.06;5092013;28;20199;-74
2023/09/06 11:29:31;;;;;;;2.07;1.70;;;;;;;28.15;54.77;101915.38;5091593;28;20273;-75
2023/09/06 11:32:11;;;;;;;2.43;2.23;;;;;;;29.08;52.25;101919.44;5085090;28;20212;-74